createdAt,value
2019-04-29T00:01:24.074Z,6.40
2019-04-29T00:03:52.657Z,6.20
2019-04-29T00:06:21.248Z,6.27
2019-04-29T00:08:49.922Z,6.78
2019-04-29T00:11:19.023Z,8.35
2019-04-29T00:13:47.602Z,7.60
2019-04-29T00:16:19.355Z,7.47
2019-04-29T00:19:05.348Z,7.00
2019-04-29T00:21:34.549Z,6.83
2019-04-29T00:24:04.261Z,7.15
2019-04-29T00:26:34.474Z,6.47
2019-04-29T00:29:03.565Z,6.15
2019-04-29T00:31:32.152Z,6.10
2019-04-29T00:34:01.242Z,5.67
2019-04-29T00:36:31.975Z,5.92
2019-04-29T00:39:18.582Z,6.67
2019-04-29T00:42:11.438Z,5.25
2019-04-29T00:44:40.630Z,6.97
2019-04-29T00:47:09.206Z,6.03
2019-04-29T00:49:38.322Z,5.97
2019-04-29T00:52:08.219Z,5.97
2019-04-29T00:54:41.302Z,5.90
2019-04-29T00:57:10.200Z,6.20
2019-04-29T00:59:38.789Z,5.72
2019-04-29T01:02:07.354Z,4.97
2019-04-29T01:04:36.246Z,5.50
2019-04-29T01:07:06.569Z,6.10
2019-04-29T01:09:36.484Z,5.17
2019-04-29T01:12:06.494Z,5.90
2019-04-29T01:14:35.591Z,6.33
2019-04-29T01:17:04.478Z,6.03
2019-04-29T01:19:33.194Z,6.10
2019-04-29T01:22:01.954Z,6.27
2019-04-29T01:24:30.538Z,6.10
2019-04-29T01:27:01.166Z,5.45
2019-04-29T01:29:31.594Z,5.90
2019-04-29T01:32:00.175Z,5.92
2019-04-29T01:34:42.601Z,5.93
2019-04-29T01:37:11.159Z,5.20
2019-04-29T01:39:44.146Z,5.73
2019-04-29T01:42:14.572Z,5.87
2019-04-29T01:44:43.355Z,6.10
2019-04-29T01:47:12.457Z,5.97
2019-04-29T01:49:41.341Z,5.83
2019-04-29T01:52:09.922Z,6.57
2019-04-29T01:54:38.503Z,5.60
2019-04-29T01:57:07.093Z,5.58
2019-04-29T01:59:36.109Z,6.03
2019-04-29T02:02:07.247Z,5.30
2019-04-29T02:04:36.110Z,5.03
2019-04-29T02:07:06.838Z,5.10
2019-04-29T02:09:36.958Z,5.80
2019-04-29T02:12:05.950Z,5.47
2019-04-29T02:14:35.154Z,5.47
2019-04-29T02:17:03.730Z,5.85
2019-04-29T02:19:32.949Z,5.67
2019-04-29T02:22:09.108Z,5.87
2019-04-29T02:24:39.507Z,6.25
2019-04-29T02:27:08.087Z,6.47
2019-04-29T02:29:37.190Z,6.43
2019-04-29T02:32:07.227Z,6.07
2019-04-29T02:34:36.092Z,5.97
2019-04-29T02:37:07.321Z,5.70
2019-04-29T02:39:38.093Z,6.10
2019-04-29T02:45:04.951Z,6.40
2019-04-29T02:47:33.517Z,6.10
2019-04-29T02:50:02.410Z,6.40
2019-04-29T02:52:37.539Z,5.53
2019-04-29T02:55:08.167Z,5.55
2019-04-29T02:57:38.608Z,6.10
2019-04-29T03:00:36.079Z,5.87
2019-04-29T03:03:04.553Z,5.07
2019-04-29T03:05:41.225Z,5.42
2019-04-29T03:08:09.783Z,5.80
2019-04-29T03:10:38.590Z,4.90
2019-04-29T03:13:07.464Z,5.50
2019-04-29T03:15:37.784Z,5.43
2019-04-29T03:18:07.071Z,5.42
2019-04-29T03:20:52.764Z,5.13
2019-04-29T03:23:26.278Z,5.30
2019-04-29T03:25:55.148Z,6.53
2019-04-29T03:28:26.699Z,6.13
2019-04-29T03:30:55.592Z,5.77
2019-04-29T03:33:25.723Z,5.50
2019-04-29T03:35:54.490Z,5.87
2019-04-29T03:38:25.046Z,6.33
2019-04-29T03:40:53.911Z,5.12
2019-04-29T03:43:24.974Z,5.30
2019-04-29T03:45:53.437Z,6.00
2019-04-29T03:48:22.331Z,5.50
2019-04-29T03:50:51.416Z,5.63
2019-04-29T03:53:20.222Z,6.10
2019-04-29T03:55:50.323Z,6.30
2019-04-29T03:58:19.107Z,6.97
2019-04-29T04:00:49.555Z,5.10
2019-04-29T04:03:25.871Z,5.70
2019-04-29T04:05:56.319Z,5.33
2019-04-29T04:08:38.425Z,5.70
2019-04-29T04:11:07.306Z,6.07
2019-04-29T04:13:36.201Z,5.87
2019-04-29T04:16:07.242Z,7.67
2019-04-29T04:18:36.866Z,8.13
2019-04-29T04:21:06.550Z,8.33
2019-04-29T04:23:35.450Z,8.53
2019-04-29T04:26:05.659Z,7.13
2019-04-29T04:28:34.863Z,6.78
2019-04-29T04:31:06.779Z,6.62
2019-04-29T04:33:34.177Z,6.12
2019-04-29T04:36:02.959Z,6.97
2019-04-29T04:38:31.539Z,7.22
2019-04-29T04:41:01.971Z,7.03
2019-04-29T04:43:30.763Z,7.10
2019-04-29T04:45:59.332Z,7.25
2019-04-29T04:48:27.922Z,8.30
2019-04-29T04:50:57.030Z,9.10
2019-04-29T04:53:27.339Z,8.53
2019-04-29T04:55:57.455Z,7.90
2019-04-29T04:58:27.359Z,7.93
2019-04-29T05:00:56.255Z,7.60
2019-04-29T05:03:26.474Z,6.47
2019-04-29T05:05:55.363Z,6.93
2019-04-29T05:08:27.330Z,6.33
2019-04-29T05:10:55.906Z,6.97
2019-04-29T05:13:28.314Z,5.67
2019-04-29T05:15:56.368Z,5.70
2019-04-29T05:18:26.772Z,6.00
2019-04-29T05:20:55.353Z,6.05
2019-04-29T05:23:25.779Z,5.50
2019-04-29T05:25:54.363Z,5.20
2019-04-29T05:28:22.943Z,5.97
2019-04-29T05:30:55.754Z,5.42
2019-04-29T05:33:26.354Z,5.65
2019-04-29T05:36:01.481Z,5.50
2019-04-29T05:38:28.555Z,6.63
2019-04-29T05:40:57.731Z,6.58
2019-04-29T05:43:40.034Z,6.75
2019-04-29T05:46:13.093Z,7.25
2019-04-29T05:48:42.107Z,7.62
2019-04-29T05:51:28.557Z,5.95
2019-04-29T05:54:04.775Z,5.72
2019-04-29T05:56:33.663Z,6.72
2019-04-29T05:59:02.449Z,6.87
2019-04-29T06:01:31.651Z,7.40
2019-04-29T06:04:00.847Z,10.60
2019-04-29T06:06:31.062Z,11.60
2019-04-29T06:08:59.652Z,9.98
2019-04-29T06:11:28.534Z,7.13
2019-04-29T06:13:57.534Z,5.72
2019-04-29T06:16:27.254Z,6.03
2019-04-29T06:19:00.425Z,7.57
2019-04-29T06:21:26.552Z,7.73
2019-04-29T06:23:59.333Z,8.00
2019-04-29T06:26:27.094Z,8.78
2019-04-29T06:28:55.683Z,8.73
2019-04-29T06:31:25.001Z,8.00
2019-04-29T06:33:54.166Z,8.15
2019-04-29T06:36:22.750Z,8.90
2019-04-29T06:38:52.870Z,8.45
2019-04-29T06:41:21.758Z,7.28
2019-04-29T06:43:53.107Z,7.15
2019-04-29T06:46:21.065Z,6.75
2019-04-29T06:48:49.859Z,6.20
2019-04-29T06:51:18.750Z,6.87
2019-04-29T06:53:47.863Z,6.15
2019-04-29T06:56:16.628Z,7.17
2019-04-29T06:58:45.210Z,7.58
2019-04-29T07:01:13.793Z,7.97
2019-04-29T07:03:42.378Z,8.50
2019-04-29T07:06:11.467Z,8.87
2019-04-29T07:08:40.362Z,10.53
2019-04-29T07:11:09.380Z,11.70
2019-04-29T07:13:37.938Z,11.48
2019-04-29T07:16:06.521Z,12.68
2019-04-29T07:18:40.339Z,16.33
2019-04-29T07:21:07.560Z,16.13
2019-04-29T07:23:36.559Z,16.82
2019-04-29T07:26:06.270Z,17.02
2019-04-29T07:28:35.158Z,16.73
2019-04-29T07:31:04.174Z,16.27
2019-04-29T07:33:32.858Z,17.05
2019-04-29T07:36:10.684Z,14.75
2019-04-29T07:38:41.397Z,14.98
2019-04-29T07:41:02.598Z,15.37
2019-04-29T07:43:31.157Z,16.48
2019-04-29T07:46:05.549Z,18.03
2019-04-29T07:48:37.017Z,19.20
2019-04-29T07:51:06.255Z,17.36
2019-04-29T07:53:44.460Z,17.55
2019-04-29T07:56:06.480Z,14.73
2019-04-29T07:58:36.678Z,15.88
2019-04-29T08:01:06.315Z,15.88
2019-04-29T08:03:35.192Z,15.45
2019-04-29T08:06:04.472Z,16.95
2019-04-29T08:08:33.366Z,17.45
2019-04-29T08:11:02.250Z,18.03
2019-04-29T08:13:31.343Z,17.53
2019-04-29T08:15:59.920Z,18.45
2019-04-29T08:18:29.018Z,17.23
2019-04-29T08:20:57.702Z,18.32
2019-04-29T08:23:26.391Z,16.85
2019-04-29T08:25:57.387Z,16.35
2019-04-29T08:28:26.419Z,18.02
2019-04-29T08:30:55.623Z,17.32
2019-04-29T08:33:24.728Z,17.33
2019-04-29T08:35:54.324Z,16.73
2019-04-29T08:38:22.903Z,19.57
2019-04-29T08:40:52.095Z,18.10
2019-04-29T08:43:31.326Z,19.90
2019-04-29T08:46:04.391Z,20.03
2019-04-29T08:48:32.994Z,23.22
2019-04-29T08:51:01.988Z,23.97
2019-04-29T08:53:30.573Z,25.70
2019-04-29T08:55:59.662Z,25.25
2019-04-29T08:58:30.290Z,23.27
2019-04-29T09:00:59.485Z,22.22
2019-04-29T09:03:39.695Z,20.48
2019-04-29T09:06:05.430Z,21.85
2019-04-29T09:08:33.115Z,21.25
2019-04-29T09:11:00.063Z,19.60
2019-04-29T09:13:28.951Z,18.70
2019-04-29T09:15:58.047Z,22.48
2019-04-29T09:18:26.831Z,20.00
2019-04-29T09:20:55.414Z,21.95
2019-04-29T09:23:25.530Z,18.87
2019-04-29T09:26:02.729Z,19.65
2019-04-29T09:28:27.939Z,17.30
2019-04-29T09:30:56.729Z,18.55
2019-04-29T09:33:25.701Z,18.82
2019-04-29T09:35:54.690Z,15.80
2019-04-29T09:38:25.849Z,16.17
2019-04-29T09:40:59.590Z,18.05
2019-04-29T09:43:28.110Z,17.80
2019-04-29T09:45:58.735Z,17.48
2019-04-29T09:48:29.088Z,18.05
2019-04-29T09:50:57.651Z,18.07
2019-04-29T09:53:26.234Z,21.55
2019-04-29T09:55:54.810Z,20.80
2019-04-29T09:58:23.662Z,21.30
2019-04-29T10:00:58.517Z,20.97
2019-04-29T10:03:45.646Z,19.95
2019-04-29T10:06:21.811Z,16.63
2019-04-29T10:08:51.922Z,17.63
2019-04-29T10:11:20.812Z,17.23
2019-04-29T10:13:49.702Z,16.83
2019-04-29T10:16:20.139Z,15.72
2019-04-29T10:19:06.993Z,15.65
2019-04-29T10:21:36.334Z,16.35
2019-04-29T10:24:06.582Z,15.65
2019-04-29T10:26:35.650Z,12.25
2019-04-29T10:29:13.878Z,13.62
2019-04-29T10:31:40.390Z,14.00
2019-04-29T10:34:08.978Z,12.53
2019-04-29T10:36:37.562Z,10.35
2019-04-29T10:39:09.724Z,10.28
2019-04-29T10:41:41.612Z,9.20
2019-04-29T10:44:14.572Z,10.10
2019-04-29T10:47:00.151Z,10.53
2019-04-29T10:49:30.370Z,10.72
2019-04-29T10:52:02.774Z,10.40
2019-04-29T10:54:29.990Z,9.95
2019-04-29T10:56:58.574Z,10.25
2019-04-29T10:59:35.696Z,9.68
2019-04-29T11:02:18.676Z,8.20
2019-04-29T11:04:49.411Z,10.43
2019-04-29T11:07:37.550Z,9.20
2019-04-29T11:13:09.218Z,9.37
2019-04-29T11:15:37.803Z,8.98
2019-04-29T11:18:07.199Z,9.53
2019-04-29T11:20:36.089Z,9.63
2019-04-29T11:23:09.282Z,8.02
2019-04-29T11:25:51.273Z,5.70
2019-04-29T11:28:19.856Z,7.87
2019-04-29T11:30:49.728Z,9.18
2019-04-29T11:33:27.467Z,8.63
2019-04-29T11:35:59.058Z,7.72
2019-04-29T11:38:28.583Z,8.05
2019-04-29T11:40:58.938Z,8.03
2019-04-29T11:43:28.369Z,8.17
2019-04-29T11:45:57.543Z,8.00
2019-04-29T11:48:27.562Z,7.83
2019-04-29T11:51:00.650Z,7.10
2019-04-29T11:53:29.970Z,7.22
2019-04-29T11:55:59.147Z,6.97
2019-04-29T11:58:44.854Z,5.97
2019-04-29T12:01:17.730Z,4.93
2019-04-29T12:03:51.461Z,5.50
2019-04-29T12:06:20.873Z,5.13
2019-04-29T12:08:53.087Z,4.80
2019-04-29T12:11:19.728Z,5.17
2019-04-29T12:13:49.839Z,5.45
2019-04-29T12:16:26.363Z,4.70
2019-04-29T12:18:56.906Z,6.47
2019-04-29T12:21:30.734Z,5.58
2019-04-29T12:24:00.342Z,6.30
2019-04-29T12:26:30.158Z,6.53
2019-04-29T12:28:59.150Z,7.10
2019-04-29T12:31:32.337Z,7.25
2019-04-29T12:34:08.602Z,7.40
2019-04-29T12:36:54.965Z,7.70
2019-04-29T12:39:42.373Z,8.18
2019-04-29T12:42:04.489Z,7.65
2019-04-29T12:44:52.078Z,8.23
2019-04-29T12:47:28.367Z,7.77
2019-04-29T12:49:57.230Z,7.60
2019-04-29T12:52:28.065Z,7.50
2019-04-29T12:54:56.646Z,7.25
2019-04-29T12:57:25.749Z,7.47
2019-04-29T12:59:55.024Z,7.55
2019-04-29T13:02:34.474Z,7.20
2019-04-29T13:05:11.044Z,7.53
2019-04-29T13:07:43.171Z,7.10
2019-04-29T13:10:19.878Z,6.63
2019-04-29T13:15:36.708Z,6.72
2019-04-29T13:18:13.872Z,5.84
2019-04-29T13:20:41.641Z,6.35
2019-04-29T13:23:19.451Z,5.75
2019-04-29T13:25:43.012Z,6.53
2019-04-29T13:28:11.702Z,5.87
2019-04-29T13:30:43.355Z,4.90
2019-04-29T13:33:16.604Z,6.27
2019-04-29T13:35:47.890Z,7.03
2019-04-29T13:38:11.862Z,8.03
2019-04-29T13:40:40.657Z,6.77
2019-04-29T13:43:09.235Z,7.70
2019-04-29T13:45:45.721Z,7.22
2019-04-29T13:48:28.108Z,7.13
2019-04-29T13:51:01.297Z,7.70
2019-04-29T13:53:29.878Z,7.67
2019-04-29T13:56:11.157Z,7.42
2019-04-29T13:58:29.292Z,8.33
2019-04-29T14:01:01.855Z,7.92
2019-04-29T14:03:36.390Z,8.20
2019-04-29T14:06:07.765Z,7.62
2019-04-29T14:08:36.731Z,6.95
2019-04-29T14:11:06.406Z,7.78
2019-04-29T14:13:38.979Z,8.50
2019-04-29T14:16:07.784Z,8.08
2019-04-29T14:18:36.487Z,9.03
2019-04-29T14:21:06.195Z,7.92
2019-04-29T14:23:35.107Z,8.33
2019-04-29T14:26:03.974Z,9.10
2019-04-29T14:28:32.557Z,8.03
2019-04-29T14:31:01.655Z,8.50
2019-04-29T14:33:31.774Z,8.53
2019-04-29T14:36:04.534Z,8.58
2019-04-29T14:38:35.913Z,7.83
2019-04-29T14:41:03.966Z,9.25
2019-04-29T14:43:36.745Z,7.92
2019-04-29T14:46:15.868Z,8.60
2019-04-29T14:48:48.557Z,8.30
2019-04-29T14:51:17.448Z,8.38
2019-04-29T14:53:56.311Z,7.80
2019-04-29T14:56:16.371Z,8.07
2019-04-29T14:58:44.904Z,7.83
2019-04-29T15:01:23.530Z,8.40
2019-04-29T15:03:56.456Z,9.90
2019-04-29T15:06:28.941Z,8.93
2019-04-29T15:08:57.786Z,7.92
2019-04-29T15:11:31.893Z,9.88
2019-04-29T15:14:06.248Z,7.25
2019-04-29T15:16:37.258Z,8.50
2019-04-29T15:19:24.101Z,8.20
2019-04-29T15:21:54.533Z,8.53
2019-04-29T15:24:27.565Z,9.30
2019-04-29T15:26:53.498Z,9.18
2019-04-29T15:29:23.024Z,9.45
2019-04-29T15:31:52.616Z,8.80
2019-04-29T15:34:21.302Z,9.20
2019-04-29T15:36:49.880Z,9.50
2019-04-29T15:39:19.037Z,9.00
2019-04-29T15:41:48.133Z,8.80
2019-04-29T15:44:20.154Z,8.50
2019-04-29T15:46:47.299Z,8.40
2019-04-29T15:49:19.973Z,8.40
2019-04-29T15:51:49.359Z,8.50
2019-04-29T15:54:19.781Z,9.03
2019-04-29T15:56:51.416Z,8.10
2019-04-29T15:59:21.991Z,9.07
2019-04-29T16:01:52.336Z,8.97
2019-04-29T16:04:38.274Z,8.00
2019-04-29T16:07:24.136Z,8.40
2019-04-29T16:10:06.408Z,7.97
2019-04-29T16:12:45.355Z,8.10
2019-04-29T16:15:12.573Z,7.78
2019-04-29T16:17:41.119Z,7.10
2019-04-29T16:20:10.227Z,8.13
2019-04-29T16:22:39.424Z,8.40
2019-04-29T16:25:12.795Z,7.90
2019-04-29T16:27:51.412Z,7.42
2019-04-29T16:30:18.247Z,7.73
2019-04-29T16:32:50.335Z,7.70
2019-04-29T16:35:23.624Z,7.45
2019-04-29T16:37:50.052Z,8.00
2019-04-29T16:40:20.280Z,8.07
2019-04-29T16:42:50.906Z,8.40
2019-04-29T16:45:21.123Z,7.13
2019-04-29T16:47:50.345Z,7.65
2019-04-29T16:50:18.903Z,7.37
2019-04-29T16:52:47.609Z,7.78
2019-04-29T16:55:16.370Z,7.63
2019-04-29T16:57:44.959Z,8.08
2019-04-29T17:00:20.553Z,8.30
2019-04-29T17:02:47.751Z,8.38
2019-04-29T17:05:16.337Z,7.70
2019-04-29T17:07:45.063Z,7.55
2019-04-29T17:10:25.167Z,7.53
2019-04-29T17:12:55.090Z,7.23
2019-04-29T17:15:26.427Z,7.57
2019-04-29T17:17:55.442Z,7.17
2019-04-29T17:20:24.886Z,7.93
2019-04-29T17:22:53.915Z,7.22
2019-04-29T17:25:23.427Z,7.62
2019-04-29T17:27:55.482Z,6.03
2019-04-29T17:30:46.267Z,6.63
2019-04-29T17:33:26.387Z,7.50
2019-04-29T17:35:47.770Z,7.40
2019-04-29T17:38:17.065Z,7.55
2019-04-29T17:40:51.047Z,8.45
2019-04-29T17:43:21.494Z,9.40
2019-04-29T17:45:54.577Z,9.23
2019-04-29T17:48:31.039Z,9.28
2019-04-29T17:51:04.240Z,9.63
2019-04-29T17:53:40.390Z,9.50
2019-04-29T17:56:19.622Z,8.73
2019-04-29T17:58:51.721Z,9.20
2019-04-29T18:01:42.858Z,9.87
2019-04-29T18:04:16.646Z,8.83
2019-04-29T18:06:44.258Z,9.85
2019-04-29T18:09:17.455Z,9.90
2019-04-29T18:11:51.878Z,9.43
2019-04-29T18:14:16.272Z,9.70
2019-04-29T18:16:47.818Z,9.35
2019-04-29T18:19:26.627Z,9.35
2019-04-29T18:22:14.750Z,9.30
2019-04-29T18:27:49.167Z,10.50
2019-04-29T18:30:19.521Z,10.60
2019-04-29T18:32:48.641Z,10.18
2019-04-29T18:35:17.519Z,9.73
2019-04-29T18:37:46.811Z,11.63
2019-04-29T18:40:16.160Z,11.47
2019-04-29T18:42:48.389Z,12.15
2019-04-29T18:45:15.798Z,12.10
2019-04-29T18:47:44.619Z,11.83
2019-04-29T18:50:15.875Z,12.57
2019-04-29T18:52:46.190Z,12.65
2019-04-29T18:58:26.176Z,12.60
2019-04-29T19:00:57.320Z,12.03
2019-04-29T19:03:40.007Z,11.70
2019-04-29T19:06:10.184Z,13.53
2019-04-29T19:08:39.446Z,12.88
2019-04-29T19:11:08.334Z,13.37
2019-04-29T19:13:37.355Z,13.00
2019-04-29T19:16:10.215Z,12.93
2019-04-29T19:18:36.212Z,12.80
2019-04-29T19:21:09.198Z,12.80
2019-04-29T19:23:37.983Z,12.65
2019-04-29T19:26:06.576Z,12.73
2019-04-29T19:28:38.134Z,11.50
2019-04-29T19:31:09.575Z,12.13
2019-04-29T19:33:39.310Z,11.97
2019-04-29T19:36:13.123Z,12.28
2019-04-29T19:38:43.274Z,10.65
2019-04-29T19:41:11.520Z,11.73
2019-04-29T19:43:40.161Z,11.22
2019-04-29T19:46:21.520Z,11.84
2019-04-29T19:48:39.350Z,10.60
2019-04-29T19:51:14.664Z,11.33
2019-04-29T19:53:42.648Z,11.00
2019-04-29T19:56:12.563Z,11.12
2019-04-29T19:58:39.688Z,11.57
2019-04-29T20:01:13.907Z,12.20
2019-04-29T20:03:41.827Z,11.28
2019-04-29T20:06:24.999Z,10.30
2019-04-29T20:08:54.651Z,10.88
2019-04-29T20:11:19.733Z,11.00
2019-04-29T20:14:02.181Z,11.67
2019-04-29T20:16:42.786Z,10.53
2019-04-29T20:19:21.796Z,10.97
2019-04-29T20:21:51.358Z,11.65
2019-04-29T20:24:23.421Z,11.55
2019-04-29T20:26:51.119Z,11.65
2019-04-29T20:29:20.334Z,11.83
2019-04-29T20:31:53.326Z,11.37
2019-04-29T20:34:24.612Z,12.23
2019-04-29T20:36:51.196Z,11.93
2019-04-29T20:39:23.203Z,11.13
2019-04-29T20:41:50.591Z,9.88
2019-04-29T20:44:19.651Z,12.45
2019-04-29T20:47:12.982Z,11.20
2019-04-29T20:49:19.507Z,13.35
2019-04-29T20:51:52.341Z,12.20
2019-04-29T20:54:30.691Z,13.20
2019-04-29T20:57:04.962Z,12.50
2019-04-29T20:59:29.920Z,12.88
2019-04-29T21:02:11.294Z,14.20
2019-04-29T21:04:34.334Z,14.78
2019-04-29T21:07:02.742Z,14.07
2019-04-29T21:09:31.739Z,16.65
2019-04-29T21:12:15.684Z,13.48
2019-04-29T21:14:46.871Z,15.18
2019-04-29T21:17:28.252Z,16.35
2019-04-29T21:19:46.494Z,16.42
2019-04-29T21:22:22.254Z,16.07
2019-04-29T21:24:49.525Z,15.93
2019-04-29T21:27:22.204Z,14.65
2019-04-29T21:29:49.758Z,14.93
2019-04-29T21:32:17.930Z,14.20
2019-04-29T21:35:10.299Z,15.67
2019-04-29T21:37:48.076Z,16.00
2019-04-29T21:40:18.743Z,14.13
2019-04-29T21:42:57.308Z,13.70
2019-04-29T21:45:27.510Z,14.18
2019-04-29T21:47:56.402Z,14.40
2019-04-29T21:50:29.010Z,14.00
2019-04-29T21:53:01.700Z,13.95
2019-04-29T21:55:29.345Z,14.57
2019-04-29T21:57:58.853Z,15.80
2019-04-29T22:00:31.199Z,14.70
2019-04-29T22:03:01.203Z,15.08
2019-04-29T22:05:30.399Z,14.68
2019-04-29T22:07:59.596Z,14.00
2019-04-29T22:10:29.150Z,15.78
2019-04-29T22:13:01.921Z,16.02
2019-04-29T22:15:32.402Z,15.40
2019-04-29T22:18:01.516Z,16.77
2019-04-29T22:20:29.362Z,16.07
2019-04-29T22:22:58.146Z,16.90
2019-04-29T22:25:27.247Z,16.82
2019-04-29T22:27:56.135Z,17.35
2019-04-29T22:30:26.645Z,17.27
2019-04-29T22:32:58.079Z,16.15
2019-04-29T22:35:27.691Z,16.17
2019-04-29T22:37:56.512Z,15.90
2019-04-29T22:40:25.438Z,16.87
2019-04-29T22:43:04.697Z,16.07
2019-04-29T22:45:29.450Z,17.27
2019-04-29T22:48:12.096Z,18.02
2019-04-29T22:50:28.859Z,17.85
2019-04-29T22:53:01.171Z,18.20
2019-04-29T22:55:30.775Z,18.17
2019-04-29T22:58:00.887Z,18.55
2019-04-29T23:00:32.621Z,19.70
2019-04-29T23:03:02.341Z,18.40
2019-04-29T23:05:32.410Z,18.73
2019-04-29T23:08:01.500Z,18.23
2019-04-29T23:10:30.091Z,18.15
2019-04-29T23:12:59.078Z,19.92
2019-04-29T23:15:27.884Z,20.97
2019-04-29T23:17:56.450Z,17.73
2019-04-29T23:20:43.151Z,18.90
2019-04-29T23:23:15.530Z,17.98
2019-04-29T23:25:59.854Z,18.40
2019-04-29T23:28:28.442Z,18.50
2019-04-29T23:30:57.151Z,18.17
2019-04-29T23:33:26.505Z,18.48
2019-04-29T23:35:56.110Z,18.10
2019-04-29T23:38:25.755Z,17.27
2019-04-29T23:40:56.272Z,18.15
2019-04-29T23:43:28.532Z,17.23
2019-04-29T23:46:00.478Z,18.62
2019-04-29T23:48:38.890Z,19.20
2019-04-29T23:50:58.702Z,20.87
2019-04-29T23:53:27.715Z,20.27
2019-04-29T23:56:00.273Z,21.45
2019-04-29T23:58:32.718Z,20.27
